QTR237 OTHH-LTFM
Flight info
| Callsign | QTR237 |
|---|---|
| Flight time | 3h 48m |
| Altitude | 40000 |
| Route | TULUB B457 NARMI N697 HIL T540 ENABI L550 NOVPA J981 DATOK L550 GENIV L324 SAFTA DCT TOMBI UA16 LEMDA UM855 SISPI |
| Aircraft | B789/H-SDE1E2E3FGHIJ2J3J4J5M1RWXY/LB1D1 |
Departure
| Time | 2026-05-05 17:14 |
|---|---|
| Airport | Hamad International Airport (OTHH) |
Arrival
| Time | 2026-05-05 21:02 |
|---|---|
| Airport | İstanbul Airport (LTFM) |
| Time | Latitude | Longitude | Altitude | Speed | Heading |
|---|---|---|---|---|---|
| 2026-05-05 16:48 | 25.26344 | 51.61370 | 26 ft | 0 kts | 246° |
| 2026-05-05 17:01 | 25.26349 | 51.61382 | 26 ft | 2 kts | 246° |
| 2026-05-05 17:01 | 25.26356 | 51.61401 | 26 ft | 3 kts | 246° |
| 2026-05-05 17:01 | 25.26364 | 51.61422 | 26 ft | 3 kts | 246° |
| 2026-05-05 17:02 | 25.26373 | 51.61442 | 26 ft | 3 kts | 246° |
| 2026-05-05 17:02 | 25.26381 | 51.61463 | 26 ft | 3 kts | 246° |
| 2026-05-05 17:02 | 25.26389 | 51.61483 | 26 ft | 3 kts | 246° |
| 2026-05-05 17:02 | 25.26390 | 51.61485 | 26 ft | 0 kts | 246° |
| 2026-05-05 17:03 | 25.26389 | 51.61485 | 26 ft | 0 kts | 246° |
| 2026-05-05 17:03 | 25.26389 | 51.61484 | 26 ft | 0 kts | 246° |
| 2026-05-05 17:06 | 25.26389 | 51.61483 | 26 ft | 0 kts | 246° |
| 2026-05-05 17:06 | 25.26379 | 51.61474 | 26 ft | 3 kts | 198° |
| 2026-05-05 17:07 | 25.26365 | 51.61487 | 26 ft | 3 kts | 99° |
| 2026-05-05 17:07 | 25.26381 | 51.61522 | 26 ft | 8 kts | 58° |
| 2026-05-05 17:07 | 25.26418 | 51.61591 | 26 ft | 13 kts | 63° |
| 2026-05-05 17:07 | 25.26457 | 51.61697 | 26 ft | 17 kts | 68° |
| 2026-05-05 17:08 | 25.26499 | 51.61812 | 26 ft | 15 kts | 68° |
| 2026-05-05 17:08 | 25.26543 | 51.61930 | 26 ft | 18 kts | 66° |
| 2026-05-05 17:08 | 25.26562 | 51.62016 | 26 ft | 9 kts | 112° |
| 2026-05-05 17:08 | 25.26508 | 51.62051 | 26 ft | 11 kts | 157° |
| 2026-05-05 17:09 | 25.26419 | 51.62091 | 26 ft | 16 kts | 158° |
| 2026-05-05 17:09 | 25.26300 | 51.62143 | 26 ft | 20 kts | 158° |
| 2026-05-05 17:09 | 25.26158 | 51.62205 | 26 ft | 24 kts | 158° |
| 2026-05-05 17:09 | 25.25998 | 51.62276 | 26 ft | 26 kts | 158° |
| 2026-05-05 17:10 | 25.25825 | 51.62352 | 26 ft | 26 kts | 159° |
| 2026-05-05 17:10 | 25.25674 | 51.62418 | 26 ft | 18 kts | 158° |
| 2026-05-05 17:10 | 25.25591 | 51.62454 | 26 ft | 10 kts | 158° |
| 2026-05-05 17:10 | 25.25524 | 51.62486 | 26 ft | 6 kts | 150° |
| 2026-05-05 17:11 | 25.25509 | 51.62522 | 26 ft | 3 kts | 82° |
| 2026-05-05 17:11 | 25.25511 | 51.62529 | 26 ft | 0 kts | 75° |
| 2026-05-05 17:12 | 25.25512 | 51.62535 | 26 ft | 3 kts | 75° |
| 2026-05-05 17:12 | 25.25530 | 51.62578 | 26 ft | 9 kts | 56° |
| 2026-05-05 17:12 | 25.25596 | 51.62640 | 26 ft | 13 kts | 14° |
| 2026-05-05 17:12 | 25.25687 | 51.62619 | 26 ft | 14 kts | 338° |
| 2026-05-05 17:13 | 25.25852 | 51.62547 | 26 ft | 43 kts | 338° |
| 2026-05-05 17:13 | 25.26379 | 51.62314 | 26 ft | 129 kts | 338° |
| 2026-05-05 17:13 | 25.27421 | 51.61866 | 80 ft | 167 kts | 337° |
| 2026-05-05 17:13 | 25.28623 | 51.61330 | 286 ft | 189 kts | 338° |
| 2026-05-05 17:14 | 25.29911 | 51.60693 | 852 ft | 212 kts | 331° |
| 2026-05-05 17:14 | 25.30931 | 51.59600 | 2025 ft | 200 kts | 311° |
| 2026-05-05 17:14 | 25.31992 | 51.58503 | 2602 ft | 220 kts | 320° |
| 2026-05-05 17:14 | 25.33261 | 51.57420 | 3127 ft | 240 kts | 323° |
| 2026-05-05 17:15 | 25.34658 | 51.56324 | 3748 ft | 251 kts | 326° |
| 2026-05-05 17:15 | 25.36106 | 51.55237 | 4428 ft | 258 kts | 326° |
| 2026-05-05 17:15 | 25.37625 | 51.54122 | 5348 ft | 255 kts | 326° |
| 2026-05-05 17:15 | 25.39090 | 51.53062 | 6292 ft | 251 kts | 324° |
| 2026-05-05 17:16 | 25.40566 | 51.51997 | 6988 ft | 256 kts | 323° |
| 2026-05-05 17:16 | 25.42081 | 51.50902 | 7579 ft | 264 kts | 323° |
| 2026-05-05 17:16 | 25.43626 | 51.49790 | 8264 ft | 266 kts | 323° |
| 2026-05-05 17:16 | 25.45167 | 51.48684 | 8995 ft | 266 kts | 323° |
| 2026-05-05 17:17 | 25.46730 | 51.47565 | 9656 ft | 269 kts | 323° |
| 2026-05-05 17:17 | 25.48311 | 51.46432 | 10257 ft | 273 kts | 323° |
| 2026-05-05 17:17 | 25.49913 | 51.45284 | 10866 ft | 276 kts | 323° |
| 2026-05-05 17:17 | 25.51415 | 51.43946 | 11231 ft | 284 kts | 308° |
| 2026-05-05 17:18 | 25.52306 | 51.41953 | 11289 ft | 301 kts | 283° |
| 2026-05-05 17:18 | 25.52573 | 51.39585 | 11452 ft | 319 kts | 276° |
| 2026-05-05 17:18 | 25.52966 | 51.37093 | 11597 ft | 337 kts | 282° |
| 2026-05-05 17:18 | 25.53559 | 51.34536 | 11917 ft | 348 kts | 285° |
| 2026-05-05 17:19 | 25.54269 | 51.31952 | 12441 ft | 352 kts | 287° |
| 2026-05-05 17:19 | 25.55026 | 51.29426 | 13053 ft | 352 kts | 288° |
| 2026-05-05 17:19 | 25.55837 | 51.26819 | 13612 ft | 353 kts | 288° |
| 2026-05-05 17:19 | 25.56654 | 51.24237 | 14022 ft | 358 kts | 288° |
| 2026-05-05 17:20 | 25.57492 | 51.21627 | 14800 ft | 360 kts | 288° |
| 2026-05-05 17:20 | 25.58054 | 51.19888 | 15462 ft | 362 kts | 288° |
| 2026-05-05 17:20 | 25.58911 | 51.17248 | 16327 ft | 368 kts | 288° |
| 2026-05-05 17:20 | 25.59783 | 51.14569 | 17118 ft | 374 kts | 289° |
| 2026-05-05 17:21 | 25.60674 | 51.11836 | 17950 ft | 379 kts | 289° |
| 2026-05-05 17:21 | 25.61576 | 51.09069 | 18794 ft | 382 kts | 289° |
| 2026-05-05 17:21 | 25.62479 | 51.06296 | 19584 ft | 387 kts | 289° |
| 2026-05-05 17:22 | 25.64334 | 51.00598 | 21071 ft | 397 kts | 289° |
| 2026-05-05 17:22 | 25.65276 | 50.97700 | 21805 ft | 401 kts | 289° |
| 2026-05-05 17:22 | 25.66226 | 50.94778 | 22523 ft | 406 kts | 289° |
| 2026-05-05 17:22 | 25.67187 | 50.91818 | 23223 ft | 410 kts | 289° |
| 2026-05-05 17:23 | 25.68158 | 50.88823 | 23911 ft | 415 kts | 289° |
| 2026-05-05 17:23 | 25.69137 | 50.85805 | 24589 ft | 419 kts | 289° |
| 2026-05-05 17:23 | 25.70132 | 50.82734 | 25259 ft | 424 kts | 289° |
| 2026-05-05 17:23 | 25.71132 | 50.79644 | 25908 ft | 428 kts | 289° |
| 2026-05-05 17:24 | 25.72141 | 50.76523 | 26542 ft | 433 kts | 289° |
| 2026-05-05 17:24 | 25.73160 | 50.73370 | 27163 ft | 437 kts | 289° |
| 2026-05-05 17:24 | 25.74192 | 50.70174 | 27770 ft | 441 kts | 289° |
| 2026-05-05 17:24 | 25.75232 | 50.66948 | 28359 ft | 445 kts | 288° |
| 2026-05-05 17:25 | 25.76278 | 50.63704 | 28929 ft | 450 kts | 288° |
| 2026-05-05 17:25 | 25.76978 | 50.61530 | 29298 ft | 452 kts | 288° |
| 2026-05-05 17:25 | 25.78401 | 50.57107 | 30029 ft | 458 kts | 288° |
| 2026-05-05 17:25 | 25.79476 | 50.53763 | 30563 ft | 462 kts | 288° |
| 2026-05-05 17:26 | 25.80556 | 50.50400 | 31086 ft | 466 kts | 288° |
| 2026-05-05 17:26 | 25.81634 | 50.47041 | 31597 ft | 470 kts | 288° |
| 2026-05-05 17:26 | 25.82748 | 50.43564 | 32120 ft | 473 kts | 288° |
| 2026-05-05 17:26 | 25.83854 | 50.40111 | 32628 ft | 477 kts | 288° |
| 2026-05-05 17:27 | 25.84971 | 50.36621 | 33124 ft | 481 kts | 288° |
| 2026-05-05 17:27 | 25.86081 | 50.33149 | 33584 ft | 485 kts | 288° |
| 2026-05-05 17:27 | 25.87225 | 50.29566 | 34035 ft | 489 kts | 288° |
| 2026-05-05 17:27 | 25.88364 | 50.25999 | 34487 ft | 491 kts | 288° |
| 2026-05-05 17:28 | 25.89501 | 50.22431 | 35216 ft | 486 kts | 288° |
| 2026-05-05 17:28 | 25.90615 | 50.18937 | 35712 ft | 487 kts | 288° |
| 2026-05-05 17:28 | 25.91745 | 50.15385 | 35945 ft | 488 kts | 288° |
| 2026-05-05 17:29 | 25.94003 | 50.08277 | 35998 ft | 487 kts | 288° |
| 2026-05-05 17:29 | 25.96253 | 50.01179 | 36001 ft | 487 kts | 288° |
| 2026-05-05 17:30 | 25.98499 | 49.94082 | 35992 ft | 487 kts | 288° |
| 2026-05-05 17:30 | 26.00742 | 49.86981 | 35999 ft | 486 kts | 288° |
| 2026-05-05 17:31 | 26.02981 | 49.79880 | 36004 ft | 486 kts | 288° |
| 2026-05-05 17:31 | 26.05192 | 49.72853 | 36665 ft | 482 kts | 288° |
| 2026-05-05 17:31 | 26.06311 | 49.69292 | 37249 ft | 480 kts | 288° |
| 2026-05-05 17:32 | 26.07409 | 49.65792 | 37639 ft | 482 kts | 288° |
| 2026-05-05 17:32 | 26.08508 | 49.62285 | 37881 ft | 484 kts | 288° |
| 2026-05-05 17:32 | 26.09617 | 49.58746 | 37995 ft | 485 kts | 288° |
| 2026-05-05 17:33 | 26.11834 | 49.51659 | 37998 ft | 486 kts | 288° |
| 2026-05-05 17:33 | 26.14055 | 49.44545 | 37988 ft | 486 kts | 288° |
| 2026-05-05 17:34 | 26.16273 | 49.37427 | 38092 ft | 484 kts | 288° |
| 2026-05-05 17:34 | 26.17371 | 49.33898 | 38202 ft | 482 kts | 288° |
| 2026-05-05 17:34 | 26.18466 | 49.30377 | 38302 ft | 480 kts | 288° |
| 2026-05-05 17:35 | 26.20641 | 49.23371 | 38501 ft | 477 kts | 288° |
| 2026-05-05 17:35 | 26.22800 | 49.16400 | 38683 ft | 474 kts | 288° |
| 2026-05-05 17:36 | 26.24943 | 49.09468 | 38838 ft | 472 kts | 288° |
| 2026-05-05 17:36 | 26.27070 | 49.02578 | 38973 ft | 471 kts | 288° |
| 2026-05-05 17:37 | 26.29200 | 48.95661 | 39089 ft | 470 kts | 288° |
| 2026-05-05 17:37 | 26.31315 | 48.88782 | 39190 ft | 469 kts | 288° |
| 2026-05-05 17:38 | 26.33422 | 48.81914 | 39266 ft | 468 kts | 288° |
| 2026-05-05 17:38 | 26.35525 | 48.75048 | 39332 ft | 468 kts | 288° |
| 2026-05-05 17:39 | 26.37623 | 48.68183 | 39392 ft | 467 kts | 288° |
| 2026-05-05 17:39 | 26.39716 | 48.61323 | 39449 ft | 467 kts | 288° |
| 2026-05-05 17:40 | 26.41803 | 48.54468 | 39497 ft | 467 kts | 288° |
| 2026-05-05 17:40 | 26.43887 | 48.47609 | 39542 ft | 467 kts | 288° |
| 2026-05-05 17:41 | 26.45968 | 48.40749 | 39582 ft | 466 kts | 288° |
| 2026-05-05 17:41 | 26.48044 | 48.33893 | 39620 ft | 466 kts | 288° |
| 2026-05-05 17:42 | 26.50115 | 48.27036 | 39654 ft | 466 kts | 288° |
| 2026-05-05 17:42 | 26.52185 | 48.20171 | 39687 ft | 466 kts | 288° |
| 2026-05-05 17:43 | 26.54258 | 48.13285 | 39722 ft | 472 kts | 288° |
| 2026-05-05 17:43 | 26.56364 | 48.06270 | 39756 ft | 479 kts | 288° |
| 2026-05-05 17:44 | 26.58474 | 47.99232 | 39777 ft | 483 kts | 288° |
| 2026-05-05 17:44 | 26.60604 | 47.92116 | 39802 ft | 485 kts | 287° |
| 2026-05-05 17:45 | 26.62741 | 47.84958 | 39831 ft | 486 kts | 287° |
| 2026-05-05 17:45 | 26.64880 | 47.77779 | 39861 ft | 486 kts | 287° |
| 2026-05-05 17:46 | 26.67016 | 47.70596 | 39892 ft | 487 kts | 287° |
| 2026-05-05 17:46 | 26.69150 | 47.63404 | 39923 ft | 487 kts | 287° |
| 2026-05-05 17:47 | 26.71278 | 47.56215 | 39959 ft | 487 kts | 287° |
| 2026-05-05 17:47 | 26.73403 | 47.49026 | 39985 ft | 487 kts | 287° |
| 2026-05-05 17:48 | 26.75525 | 47.41829 | 40000 ft | 487 kts | 287° |
| 2026-05-05 17:48 | 26.77170 | 47.34478 | 40006 ft | 486 kts | 281° |
| 2026-05-05 17:49 | 26.78390 | 47.27037 | 39988 ft | 486 kts | 279° |
| 2026-05-05 17:49 | 26.79529 | 47.19592 | 40001 ft | 486 kts | 279° |
| 2026-05-05 17:50 | 26.80660 | 47.12166 | 40000 ft | 486 kts | 279° |
| 2026-05-05 17:50 | 26.81804 | 47.04658 | 39989 ft | 486 kts | 279° |
| 2026-05-05 17:51 | 26.82942 | 46.97187 | 39999 ft | 486 kts | 279° |
| 2026-05-05 17:51 | 26.84076 | 46.89714 | 40001 ft | 486 kts | 279° |
| 2026-05-05 17:52 | 26.85206 | 46.82240 | 39990 ft | 486 kts | 278° |
| 2026-05-05 17:52 | 26.86331 | 46.74771 | 40002 ft | 486 kts | 278° |
| 2026-05-05 17:53 | 26.87452 | 46.67301 | 39998 ft | 486 kts | 278° |
| 2026-05-05 17:53 | 26.88569 | 46.59828 | 39991 ft | 486 kts | 278° |
| 2026-05-05 17:54 | 26.89682 | 46.52360 | 40004 ft | 486 kts | 278° |
| 2026-05-05 17:54 | 26.90792 | 46.44880 | 39994 ft | 486 kts | 278° |
| 2026-05-05 17:55 | 26.91898 | 46.37404 | 39996 ft | 486 kts | 278° |
| 2026-05-05 17:55 | 26.93006 | 46.29926 | 40004 ft | 486 kts | 278° |
| 2026-05-05 17:56 | 26.94105 | 46.22489 | 39991 ft | 486 kts | 278° |
| 2026-05-05 17:56 | 26.95210 | 46.14980 | 40001 ft | 486 kts | 278° |
| 2026-05-05 17:57 | 26.96302 | 46.07525 | 40000 ft | 486 kts | 278° |
| 2026-05-05 17:57 | 26.97394 | 46.00046 | 39991 ft | 486 kts | 278° |
| 2026-05-05 17:58 | 26.98482 | 45.92564 | 40004 ft | 486 kts | 278° |
| 2026-05-05 17:58 | 26.99564 | 45.85093 | 39995 ft | 486 kts | 278° |
| 2026-05-05 17:59 | 27.00646 | 45.77598 | 39993 ft | 486 kts | 278° |
| 2026-05-05 17:59 | 27.01722 | 45.70110 | 40005 ft | 486 kts | 278° |
| 2026-05-05 18:00 | 27.02794 | 45.62629 | 39993 ft | 486 kts | 278° |
| 2026-05-05 18:00 | 27.03863 | 45.55129 | 39997 ft | 486 kts | 278° |
| 2026-05-05 18:01 | 27.04928 | 45.47647 | 40003 ft | 486 kts | 278° |
| 2026-05-05 18:01 | 27.05889 | 45.40138 | 39990 ft | 486 kts | 277° |
| 2026-05-05 18:02 | 27.06595 | 45.33892 | 39996 ft | 486 kts | 276° |
| 2026-05-05 18:02 | 27.07427 | 45.26371 | 40004 ft | 486 kts | 276° |
| 2026-05-05 18:03 | 27.08260 | 45.18844 | 39991 ft | 486 kts | 276° |
| 2026-05-05 18:03 | 27.09091 | 45.11319 | 40000 ft | 486 kts | 276° |
| 2026-05-05 18:04 | 27.09918 | 45.03794 | 40000 ft | 486 kts | 276° |
| 2026-05-05 18:04 | 27.10741 | 44.96274 | 39991 ft | 486 kts | 276° |
| 2026-05-05 18:05 | 27.11562 | 44.88740 | 40005 ft | 486 kts | 276° |
| 2026-05-05 18:05 | 27.12378 | 44.81209 | 40006 ft | 486 kts | 276° |
| 2026-05-05 18:06 | 27.13189 | 44.73689 | 39991 ft | 486 kts | 276° |
| 2026-05-05 18:06 | 27.13997 | 44.66161 | 40001 ft | 486 kts | 276° |
| 2026-05-05 18:07 | 27.14803 | 44.58625 | 40001 ft | 486 kts | 276° |
| 2026-05-05 18:07 | 27.15602 | 44.51111 | 39990 ft | 486 kts | 276° |
| 2026-05-05 18:08 | 27.16400 | 44.43566 | 40003 ft | 486 kts | 276° |
| 2026-05-05 18:08 | 27.17192 | 44.36023 | 39997 ft | 486 kts | 276° |
| 2026-05-05 18:09 | 27.17975 | 44.28486 | 39992 ft | 486 kts | 276° |
| 2026-05-05 18:09 | 27.18752 | 44.20962 | 40005 ft | 486 kts | 276° |
| 2026-05-05 18:10 | 27.19527 | 44.13410 | 39993 ft | 486 kts | 276° |
| 2026-05-05 18:10 | 27.20297 | 44.05873 | 39997 ft | 486 kts | 276° |
| 2026-05-05 18:11 | 27.21063 | 43.98337 | 40003 ft | 486 kts | 276° |
| 2026-05-05 18:11 | 27.21825 | 43.90795 | 39991 ft | 486 kts | 276° |
| 2026-05-05 18:12 | 27.22578 | 43.83307 | 40001 ft | 486 kts | 276° |
| 2026-05-05 18:12 | 27.23331 | 43.75769 | 40001 ft | 486 kts | 276° |
| 2026-05-05 18:13 | 27.24082 | 43.68221 | 39990 ft | 486 kts | 276° |
| 2026-05-05 18:13 | 27.24831 | 43.60671 | 40003 ft | 486 kts | 276° |
| 2026-05-05 18:14 | 27.25575 | 43.53131 | 39997 ft | 486 kts | 276° |
| 2026-05-05 18:14 | 27.26315 | 43.45580 | 39992 ft | 486 kts | 276° |
| 2026-05-05 18:15 | 27.27051 | 43.38041 | 40005 ft | 486 kts | 276° |
| 2026-05-05 18:15 | 27.27788 | 43.30439 | 39994 ft | 486 kts | 276° |
| 2026-05-05 18:16 | 27.28515 | 43.22893 | 39995 ft | 486 kts | 276° |
| 2026-05-05 18:16 | 27.29234 | 43.15396 | 40004 ft | 486 kts | 276° |
| 2026-05-05 18:17 | 27.29954 | 43.07844 | 39991 ft | 486 kts | 276° |
| 2026-05-05 18:17 | 27.30670 | 43.00296 | 39999 ft | 486 kts | 276° |
| 2026-05-05 18:18 | 27.31381 | 42.92746 | 40001 ft | 486 kts | 276° |
| 2026-05-05 18:18 | 27.32088 | 42.85196 | 39990 ft | 486 kts | 275° |
| 2026-05-05 18:19 | 27.32791 | 42.77651 | 40003 ft | 486 kts | 275° |
| 2026-05-05 18:19 | 27.33491 | 42.70090 | 39997 ft | 486 kts | 275° |
| 2026-05-05 18:20 | 27.34186 | 42.62537 | 39993 ft | 485 kts | 275° |
| 2026-05-05 18:20 | 27.34877 | 42.54979 | 40005 ft | 486 kts | 275° |
| 2026-05-05 18:21 | 27.35566 | 42.47412 | 39992 ft | 486 kts | 275° |
| 2026-05-05 18:21 | 27.36248 | 42.39855 | 39998 ft | 485 kts | 275° |
| 2026-05-05 18:22 | 27.36927 | 42.32294 | 40003 ft | 486 kts | 275° |
| 2026-05-05 18:22 | 27.37597 | 42.24784 | 39991 ft | 485 kts | 275° |
| 2026-05-05 18:23 | 27.38266 | 42.17235 | 40001 ft | 485 kts | 275° |
| 2026-05-05 18:23 | 27.38933 | 42.09669 | 39999 ft | 486 kts | 275° |
| 2026-05-05 18:24 | 27.39596 | 42.02105 | 39991 ft | 485 kts | 275° |
| 2026-05-05 18:24 | 27.40254 | 41.94544 | 40004 ft | 485 kts | 275° |
| 2026-05-05 18:25 | 27.40908 | 41.86975 | 39995 ft | 486 kts | 275° |
| 2026-05-05 18:25 | 27.41558 | 41.79414 | 39994 ft | 485 kts | 275° |
| 2026-05-05 18:26 | 27.42335 | 41.71870 | 39991 ft | 486 kts | 281° |
| 2026-05-05 18:26 | 27.44064 | 41.64506 | 40004 ft | 487 kts | 286° |
| 2026-05-05 18:27 | 27.46185 | 41.57265 | 39989 ft | 487 kts | 288° |
| 2026-05-05 18:27 | 27.48469 | 41.50084 | 40001 ft | 487 kts | 289° |
| 2026-05-05 18:28 | 27.51949 | 41.39344 | 39992 ft | 487 kts | 289° |
| 2026-05-05 18:28 | 27.54270 | 41.32173 | 39998 ft | 487 kts | 289° |
| 2026-05-05 18:29 | 27.56584 | 41.25007 | 40002 ft | 487 kts | 289° |
| 2026-05-05 18:29 | 27.58896 | 41.17830 | 39990 ft | 487 kts | 289° |
| 2026-05-05 18:30 | 27.61199 | 41.10664 | 40002 ft | 487 kts | 289° |
| 2026-05-05 18:30 | 27.63501 | 41.03489 | 39998 ft | 487 kts | 289° |
| 2026-05-05 18:31 | 27.65788 | 40.96347 | 39991 ft | 487 kts | 289° |
| 2026-05-05 18:31 | 27.68083 | 40.89165 | 40004 ft | 487 kts | 289° |
| 2026-05-05 18:32 | 27.70373 | 40.81983 | 39994 ft | 487 kts | 289° |
| 2026-05-05 18:32 | 27.72659 | 40.74799 | 39996 ft | 486 kts | 289° |
| 2026-05-05 18:33 | 27.74942 | 40.67609 | 40004 ft | 486 kts | 289° |
| 2026-05-05 18:33 | 27.77222 | 40.60416 | 39991 ft | 486 kts | 289° |
| 2026-05-05 18:34 | 27.79496 | 40.53224 | 39998 ft | 486 kts | 289° |
| 2026-05-05 18:34 | 27.81769 | 40.46024 | 40003 ft | 486 kts | 289° |
| 2026-05-05 18:35 | 27.84039 | 40.38817 | 39990 ft | 486 kts | 289° |
| 2026-05-05 18:35 | 27.86302 | 40.31616 | 39999 ft | 486 kts | 289° |
| 2026-05-05 18:36 | 27.88564 | 40.24407 | 40001 ft | 486 kts | 289° |
| 2026-05-05 18:36 | 27.90822 | 40.17193 | 39990 ft | 486 kts | 289° |
| 2026-05-05 18:37 | 27.93073 | 40.09985 | 40003 ft | 486 kts | 289° |
| 2026-05-05 18:37 | 27.95323 | 40.02769 | 39997 ft | 486 kts | 289° |
| 2026-05-05 18:38 | 27.97571 | 39.95543 | 39992 ft | 486 kts | 289° |
| 2026-05-05 18:38 | 27.99813 | 39.88317 | 40004 ft | 486 kts | 289° |
| 2026-05-05 18:39 | 28.02051 | 39.81094 | 39993 ft | 486 kts | 289° |
| 2026-05-05 18:39 | 28.04285 | 39.73865 | 39997 ft | 486 kts | 289° |
| 2026-05-05 18:40 | 28.06500 | 39.66686 | 40003 ft | 486 kts | 288° |
| 2026-05-05 18:40 | 28.08742 | 39.59402 | 39991 ft | 486 kts | 288° |
| 2026-05-05 18:41 | 28.10965 | 39.52164 | 40002 ft | 486 kts | 288° |
| 2026-05-05 18:41 | 28.13184 | 39.44925 | 39998 ft | 486 kts | 288° |
| 2026-05-05 18:42 | 28.15385 | 39.37728 | 39992 ft | 486 kts | 288° |
| 2026-05-05 18:42 | 28.17596 | 39.30482 | 40004 ft | 486 kts | 288° |
| 2026-05-05 18:43 | 28.19806 | 39.23227 | 39993 ft | 487 kts | 288° |
| 2026-05-05 18:43 | 28.22009 | 39.15980 | 39997 ft | 486 kts | 288° |
| 2026-05-05 18:44 | 28.24207 | 39.08730 | 40003 ft | 486 kts | 288° |
| 2026-05-05 18:44 | 28.26049 | 39.02645 | 39992 ft | 486 kts | 288° |
| 2026-05-05 18:45 | 28.28242 | 38.95382 | 39999 ft | 486 kts | 288° |
| 2026-05-05 18:45 | 28.30418 | 38.88164 | 40001 ft | 486 kts | 288° |
| 2026-05-05 18:46 | 28.32603 | 38.80899 | 39990 ft | 486 kts | 288° |
| 2026-05-05 18:46 | 28.34784 | 38.73628 | 40003 ft | 486 kts | 288° |
| 2026-05-05 18:47 | 28.36962 | 38.66355 | 39996 ft | 487 kts | 288° |
| 2026-05-05 18:47 | 28.39140 | 38.59068 | 39994 ft | 487 kts | 288° |
| 2026-05-05 18:48 | 28.41309 | 38.51791 | 40004 ft | 487 kts | 288° |
| 2026-05-05 18:48 | 28.43476 | 38.44507 | 39992 ft | 487 kts | 288° |
| 2026-05-05 18:49 | 28.45637 | 38.37225 | 39999 ft | 487 kts | 288° |
| 2026-05-05 18:49 | 28.47798 | 38.29931 | 40001 ft | 487 kts | 288° |
| 2026-05-05 18:50 | 28.49951 | 38.22643 | 39990 ft | 487 kts | 288° |
| 2026-05-05 18:50 | 28.52104 | 38.15343 | 40003 ft | 487 kts | 288° |
| 2026-05-05 18:51 | 28.54251 | 38.08046 | 39996 ft | 487 kts | 288° |
| 2026-05-05 18:51 | 28.56392 | 38.00750 | 39993 ft | 487 kts | 288° |
| 2026-05-05 18:52 | 28.58520 | 37.93487 | 40005 ft | 487 kts | 288° |
| 2026-05-05 18:52 | 28.60669 | 37.86133 | 39992 ft | 487 kts | 288° |
| 2026-05-05 18:53 | 28.62784 | 37.78879 | 39997 ft | 486 kts | 288° |
| 2026-05-05 18:53 | 28.64912 | 37.71565 | 40003 ft | 487 kts | 288° |
| 2026-05-05 18:54 | 28.67036 | 37.64248 | 39991 ft | 487 kts | 288° |
| 2026-05-05 18:54 | 28.69155 | 37.56930 | 40001 ft | 487 kts | 288° |
| 2026-05-05 18:55 | 28.71269 | 37.49613 | 39999 ft | 487 kts | 288° |
| 2026-05-05 18:55 | 28.73383 | 37.42283 | 39991 ft | 487 kts | 288° |
| 2026-05-05 18:56 | 28.75490 | 37.34958 | 40004 ft | 487 kts | 287° |
| 2026-05-05 18:56 | 28.77593 | 37.27629 | 39994 ft | 487 kts | 287° |
| 2026-05-05 18:57 | 28.79696 | 37.20285 | 39995 ft | 486 kts | 287° |
| 2026-05-05 18:57 | 28.81793 | 37.12947 | 40004 ft | 486 kts | 287° |
| 2026-05-05 18:58 | 28.83884 | 37.05612 | 39991 ft | 487 kts | 287° |
| 2026-05-05 18:58 | 28.85972 | 36.98268 | 39999 ft | 486 kts | 287° |
| 2026-05-05 18:59 | 28.88056 | 36.90923 | 40001 ft | 487 kts | 287° |
| 2026-05-05 18:59 | 28.90134 | 36.83583 | 39990 ft | 487 kts | 287° |
| 2026-05-05 19:00 | 28.92210 | 36.76232 | 40003 ft | 486 kts | 287° |
| 2026-05-05 19:00 | 28.94283 | 36.68873 | 39997 ft | 487 kts | 287° |
| 2026-05-05 19:01 | 28.96348 | 36.61527 | 39993 ft | 486 kts | 287° |
| 2026-05-05 19:01 | 28.98414 | 36.54163 | 40005 ft | 486 kts | 287° |
| 2026-05-05 19:02 | 29.00460 | 36.46847 | 39993 ft | 486 kts | 287° |
| 2026-05-05 19:02 | 29.02516 | 36.39482 | 39998 ft | 486 kts | 287° |
| 2026-05-05 19:03 | 29.04567 | 36.32118 | 40002 ft | 486 kts | 287° |
| 2026-05-05 19:03 | 29.06615 | 36.24748 | 39990 ft | 486 kts | 287° |
| 2026-05-05 19:04 | 29.08657 | 36.17380 | 40002 ft | 486 kts | 287° |
| 2026-05-05 19:04 | 29.10696 | 36.10003 | 39997 ft | 486 kts | 287° |
| 2026-05-05 19:05 | 29.12732 | 36.02624 | 39991 ft | 486 kts | 287° |
| 2026-05-05 19:05 | 29.14764 | 35.95242 | 40004 ft | 486 kts | 287° |
| 2026-05-05 19:06 | 29.16791 | 35.87858 | 39994 ft | 486 kts | 287° |
| 2026-05-05 19:06 | 29.18816 | 35.80464 | 39996 ft | 486 kts | 287° |
| 2026-05-05 19:07 | 29.20834 | 35.73079 | 40003 ft | 486 kts | 287° |
| 2026-05-05 19:07 | 29.22850 | 35.65680 | 39991 ft | 486 kts | 287° |
| 2026-05-05 19:08 | 29.24860 | 35.58290 | 40001 ft | 486 kts | 287° |
| 2026-05-05 19:08 | 29.26866 | 35.50894 | 39999 ft | 486 kts | 287° |
| 2026-05-05 19:09 | 29.28871 | 35.43487 | 39991 ft | 486 kts | 287° |
| 2026-05-05 19:09 | 29.30855 | 35.36134 | 40004 ft | 486 kts | 287° |
| 2026-05-05 19:10 | 29.32851 | 35.28725 | 39994 ft | 486 kts | 287° |
| 2026-05-05 19:10 | 29.34841 | 35.21313 | 39995 ft | 486 kts | 287° |
| 2026-05-05 19:11 | 29.36827 | 35.13902 | 40004 ft | 486 kts | 287° |
| 2026-05-05 19:11 | 29.38811 | 35.06484 | 39991 ft | 486 kts | 286° |
| 2026-05-05 19:12 | 29.40788 | 34.99067 | 40000 ft | 486 kts | 286° |
| 2026-05-05 19:12 | 29.42757 | 34.91666 | 40000 ft | 486 kts | 286° |
| 2026-05-05 19:13 | 29.44732 | 34.84221 | 39991 ft | 486 kts | 286° |
| 2026-05-05 19:13 | 29.46701 | 34.76783 | 40004 ft | 486 kts | 286° |
| 2026-05-05 19:14 | 29.48662 | 34.69357 | 39995 ft | 486 kts | 286° |
| 2026-05-05 19:14 | 29.50620 | 34.61921 | 39994 ft | 486 kts | 286° |
| 2026-05-05 19:15 | 29.52573 | 34.54489 | 40004 ft | 486 kts | 286° |
| 2026-05-05 19:15 | 29.54522 | 34.47051 | 39991 ft | 486 kts | 286° |
| 2026-05-05 19:16 | 29.56467 | 34.39612 | 39999 ft | 486 kts | 286° |
| 2026-05-05 19:16 | 29.58406 | 34.32174 | 40002 ft | 486 kts | 286° |
| 2026-05-05 19:17 | 29.61273 | 34.25156 | 39974 ft | 490 kts | 305° |
| 2026-05-05 19:17 | 29.63581 | 34.22272 | 39989 ft | 493 kts | 316° |
| 2026-05-05 19:17 | 29.66375 | 34.19960 | 40003 ft | 496 kts | 327° |
| 2026-05-05 19:18 | 29.72559 | 34.16396 | 40015 ft | 498 kts | 332° |
| 2026-05-05 19:18 | 29.78780 | 34.12880 | 39994 ft | 498 kts | 330° |
| 2026-05-05 19:19 | 29.84928 | 34.09207 | 39995 ft | 498 kts | 330° |
| 2026-05-05 19:19 | 29.91048 | 34.05463 | 40005 ft | 498 kts | 329° |
| 2026-05-05 19:20 | 29.97114 | 34.01726 | 39992 ft | 498 kts | 329° |
| 2026-05-05 19:20 | 30.03225 | 33.97957 | 39998 ft | 498 kts | 329° |
| 2026-05-05 19:21 | 30.09335 | 33.94183 | 40003 ft | 498 kts | 329° |
| 2026-05-05 19:21 | 30.15439 | 33.90408 | 39991 ft | 498 kts | 329° |
| 2026-05-05 19:22 | 30.21537 | 33.86632 | 40002 ft | 498 kts | 329° |
| 2026-05-05 19:22 | 30.27643 | 33.82846 | 39999 ft | 498 kts | 329° |
| 2026-05-05 19:23 | 30.33750 | 33.79053 | 39991 ft | 498 kts | 329° |
| 2026-05-05 19:23 | 30.39858 | 33.75255 | 40004 ft | 498 kts | 329° |
| 2026-05-05 19:24 | 30.45962 | 33.71453 | 39998 ft | 498 kts | 329° |
| 2026-05-05 19:24 | 30.52068 | 33.67645 | 39992 ft | 498 kts | 329° |
| 2026-05-05 19:25 | 30.58127 | 33.63861 | 40004 ft | 498 kts | 329° |
| 2026-05-05 19:25 | 30.64225 | 33.60047 | 39994 ft | 498 kts | 329° |
| 2026-05-05 19:26 | 30.70324 | 33.56227 | 39995 ft | 498 kts | 329° |
| 2026-05-05 19:26 | 30.76423 | 33.52401 | 40005 ft | 498 kts | 329° |
| 2026-05-05 19:27 | 30.82517 | 33.48573 | 39992 ft | 498 kts | 329° |
| 2026-05-05 19:27 | 30.88606 | 33.44743 | 39998 ft | 498 kts | 329° |
| 2026-05-05 19:28 | 30.94702 | 33.40902 | 40002 ft | 498 kts | 329° |
| 2026-05-05 19:28 | 31.00793 | 33.37059 | 39990 ft | 498 kts | 329° |
| 2026-05-05 19:29 | 31.06885 | 33.33210 | 40002 ft | 498 kts | 329° |
| 2026-05-05 19:29 | 31.12974 | 33.29357 | 39997 ft | 498 kts | 329° |
| 2026-05-05 19:30 | 31.18040 | 33.26147 | 39991 ft | 498 kts | 329° |
| 2026-05-05 19:30 | 31.24123 | 33.22287 | 40004 ft | 498 kts | 329° |
| 2026-05-05 19:31 | 31.30236 | 33.18471 | 39979 ft | 499 kts | 333° |
| 2026-05-05 19:31 | 31.36942 | 33.16262 | 40014 ft | 504 kts | 346° |
| 2026-05-05 19:32 | 31.43853 | 33.14805 | 39992 ft | 505 kts | 348° |
| 2026-05-05 19:32 | 31.50854 | 33.13886 | 39997 ft | 507 kts | 353° |
| 2026-05-05 19:33 | 31.57901 | 33.13364 | 40002 ft | 508 kts | 354° |
| 2026-05-05 19:33 | 31.64957 | 33.12963 | 39990 ft | 508 kts | 355° |
| 2026-05-05 19:34 | 31.72023 | 33.12577 | 40002 ft | 508 kts | 355° |
| 2026-05-05 19:35 | 31.82089 | 33.09522 | 39987 ft | 499 kts | 326° |
| 2026-05-05 19:35 | 31.84853 | 33.07082 | 40000 ft | 495 kts | 315° |
| 2026-05-05 19:35 | 31.87224 | 33.04245 | 40042 ft | 493 kts | 310° |
| 2026-05-05 19:36 | 31.91785 | 32.98223 | 40015 ft | 492 kts | 309° |
| 2026-05-05 19:36 | 31.96404 | 32.92265 | 39995 ft | 492 kts | 310° |
| 2026-05-05 19:37 | 32.01093 | 32.86382 | 39994 ft | 492 kts | 311° |
| 2026-05-05 19:37 | 32.05802 | 32.80526 | 40004 ft | 492 kts | 311° |
| 2026-05-05 19:38 | 32.10515 | 32.74667 | 39991 ft | 492 kts | 311° |
| 2026-05-05 19:38 | 32.15219 | 32.68808 | 39999 ft | 492 kts | 311° |
| 2026-05-05 19:39 | 32.19920 | 32.62945 | 40005 ft | 492 kts | 311° |
| 2026-05-05 19:39 | 32.24619 | 32.57073 | 39991 ft | 492 kts | 311° |
| 2026-05-05 19:40 | 32.29313 | 32.51198 | 40000 ft | 492 kts | 311° |
| 2026-05-05 19:40 | 32.34012 | 32.45308 | 40000 ft | 492 kts | 311° |
| 2026-05-05 19:41 | 32.38671 | 32.39458 | 39991 ft | 492 kts | 311° |
| 2026-05-05 19:41 | 32.43391 | 32.33521 | 40003 ft | 492 kts | 311° |
| 2026-05-05 19:42 | 32.48074 | 32.27622 | 39996 ft | 492 kts | 311° |
| 2026-05-05 19:42 | 32.52755 | 32.21716 | 39994 ft | 492 kts | 311° |
| 2026-05-05 19:43 | 32.57432 | 32.15805 | 40004 ft | 492 kts | 311° |
| 2026-05-05 19:43 | 32.62429 | 32.10273 | 39963 ft | 495 kts | 324° |
| 2026-05-05 19:44 | 32.68723 | 32.06863 | 40021 ft | 500 kts | 338° |
| 2026-05-05 19:44 | 32.75351 | 32.04318 | 39994 ft | 501 kts | 341° |
| 2026-05-05 19:45 | 32.82032 | 32.01937 | 39994 ft | 502 kts | 341° |
| 2026-05-05 19:45 | 32.88683 | 31.99568 | 40004 ft | 502 kts | 341° |
| 2026-05-05 19:46 | 32.95367 | 31.97171 | 39991 ft | 502 kts | 341° |
| 2026-05-05 19:46 | 33.02055 | 31.94764 | 39999 ft | 502 kts | 341° |
| 2026-05-05 19:47 | 33.08743 | 31.92350 | 40001 ft | 502 kts | 341° |
| 2026-05-05 19:47 | 33.15430 | 31.89934 | 39991 ft | 502 kts | 341° |
| 2026-05-05 19:48 | 33.22118 | 31.87513 | 40004 ft | 502 kts | 341° |
| 2026-05-05 19:48 | 33.28797 | 31.85092 | 39996 ft | 502 kts | 341° |
| 2026-05-05 19:49 | 33.35487 | 31.82662 | 39994 ft | 502 kts | 341° |
| 2026-05-05 19:49 | 33.42173 | 31.80231 | 40005 ft | 502 kts | 341° |
| 2026-05-05 19:50 | 33.48867 | 31.77802 | 39997 ft | 502 kts | 341° |
| 2026-05-05 19:50 | 33.55563 | 31.75378 | 39993 ft | 502 kts | 341° |
| 2026-05-05 19:51 | 33.62250 | 31.72955 | 40004 ft | 502 kts | 341° |
| 2026-05-05 19:51 | 33.68941 | 31.70528 | 39992 ft | 502 kts | 341° |
| 2026-05-05 19:52 | 33.75630 | 31.68096 | 39998 ft | 502 kts | 341° |
| 2026-05-05 19:52 | 33.82326 | 31.65660 | 40002 ft | 502 kts | 341° |
| 2026-05-05 19:53 | 33.89013 | 31.63219 | 39990 ft | 502 kts | 341° |
| 2026-05-05 19:53 | 33.95660 | 31.60788 | 40003 ft | 502 kts | 341° |
| 2026-05-05 19:54 | 34.02394 | 31.58322 | 39997 ft | 502 kts | 341° |
| 2026-05-05 19:54 | 34.09090 | 31.55866 | 39993 ft | 502 kts | 341° |
| 2026-05-05 19:55 | 34.15724 | 31.53429 | 40005 ft | 502 kts | 341° |
| 2026-05-05 19:55 | 34.22411 | 31.50968 | 39993 ft | 502 kts | 341° |
| 2026-05-05 19:56 | 34.29109 | 31.48500 | 39995 ft | 502 kts | 341° |
| 2026-05-05 19:56 | 34.35798 | 31.46030 | 40004 ft | 502 kts | 341° |
| 2026-05-05 19:57 | 34.42488 | 31.43556 | 39991 ft | 502 kts | 341° |
| 2026-05-05 19:57 | 34.49175 | 31.41079 | 40000 ft | 502 kts | 341° |
| 2026-05-05 19:58 | 34.55861 | 31.38598 | 40000 ft | 502 kts | 341° |
| 2026-05-05 19:58 | 34.62545 | 31.36114 | 39991 ft | 502 kts | 341° |
| 2026-05-05 19:59 | 34.69230 | 31.33624 | 40004 ft | 502 kts | 341° |
| 2026-05-05 19:59 | 34.75918 | 31.31128 | 39997 ft | 502 kts | 341° |
| 2026-05-05 20:00 | 34.82593 | 31.28633 | 39992 ft | 502 kts | 340° |
| 2026-05-05 20:00 | 34.89211 | 31.26156 | 40005 ft | 502 kts | 340° |
| 2026-05-05 20:01 | 34.95973 | 31.23620 | 40006 ft | 502 kts | 340° |
| 2026-05-05 20:01 | 35.02653 | 31.21111 | 39991 ft | 502 kts | 340° |
| 2026-05-05 20:02 | 35.09301 | 31.18609 | 40001 ft | 502 kts | 340° |
| 2026-05-05 20:02 | 35.16018 | 31.16077 | 39999 ft | 502 kts | 340° |
| 2026-05-05 20:03 | 35.22696 | 31.13555 | 39990 ft | 502 kts | 340° |
| 2026-05-05 20:03 | 35.29338 | 31.11044 | 40003 ft | 502 kts | 340° |
| 2026-05-05 20:04 | 35.36013 | 31.08516 | 39997 ft | 502 kts | 340° |
| 2026-05-05 20:04 | 35.42695 | 31.05981 | 39992 ft | 502 kts | 340° |
| 2026-05-05 20:05 | 35.49369 | 31.03445 | 40004 ft | 502 kts | 340° |
| 2026-05-05 20:05 | 35.56045 | 31.00903 | 39994 ft | 502 kts | 340° |
| 2026-05-05 20:06 | 35.62699 | 30.98365 | 39996 ft | 502 kts | 340° |
| 2026-05-05 20:06 | 35.69400 | 30.95805 | 40004 ft | 502 kts | 340° |
| 2026-05-05 20:07 | 35.76061 | 30.93256 | 39991 ft | 502 kts | 340° |
| 2026-05-05 20:07 | 35.82749 | 30.90692 | 39999 ft | 502 kts | 340° |
| 2026-05-05 20:08 | 35.89422 | 30.88129 | 40002 ft | 502 kts | 340° |
| 2026-05-05 20:08 | 35.96100 | 30.85560 | 39990 ft | 502 kts | 340° |
| 2026-05-05 20:09 | 36.02908 | 30.83599 | 40008 ft | 506 kts | 349° |
| 2026-05-05 20:09 | 36.09650 | 30.82701 | 40000 ft | 507 kts | 352° |
| 2026-05-05 20:10 | 36.16716 | 30.82158 | 39985 ft | 508 kts | 355° |
| 2026-05-05 20:10 | 36.23781 | 30.81845 | 39999 ft | 509 kts | 355° |
| 2026-05-05 20:11 | 36.30862 | 30.81590 | 40001 ft | 509 kts | 355° |
| 2026-05-05 20:11 | 36.37944 | 30.81339 | 39990 ft | 509 kts | 355° |
| 2026-05-05 20:12 | 36.45028 | 30.81092 | 40003 ft | 509 kts | 355° |
| 2026-05-05 20:12 | 36.50963 | 30.80887 | 39999 ft | 509 kts | 355° |
| 2026-05-05 20:13 | 36.58041 | 30.80643 | 39991 ft | 509 kts | 355° |
| 2026-05-05 20:13 | 36.65084 | 30.80400 | 40004 ft | 509 kts | 355° |
| 2026-05-05 20:14 | 36.72168 | 30.80155 | 39994 ft | 509 kts | 355° |
| 2026-05-05 20:14 | 36.79254 | 30.79910 | 39996 ft | 509 kts | 355° |
| 2026-05-05 20:15 | 36.86339 | 30.79664 | 40003 ft | 509 kts | 355° |
| 2026-05-05 20:15 | 36.93416 | 30.79308 | 39993 ft | 508 kts | 353° |
| 2026-05-05 20:16 | 37.00448 | 30.78461 | 39998 ft | 508 kts | 351° |
| 2026-05-05 20:16 | 37.07476 | 30.77533 | 40003 ft | 508 kts | 351° |
| 2026-05-05 20:17 | 37.14503 | 30.76634 | 39991 ft | 507 kts | 351° |
| 2026-05-05 20:17 | 37.21534 | 30.75751 | 40002 ft | 507 kts | 351° |
| 2026-05-05 20:18 | 37.28562 | 30.74873 | 39997 ft | 507 kts | 351° |
| 2026-05-05 20:18 | 37.35593 | 30.73993 | 39992 ft | 507 kts | 351° |
| 2026-05-05 20:19 | 37.42569 | 30.73089 | 40006 ft | 507 kts | 351° |
| 2026-05-05 20:19 | 37.49490 | 30.72116 | 39984 ft | 486 kts | 351° |
| 2026-05-05 20:20 | 37.56224 | 30.71150 | 39989 ft | 490 kts | 351° |
| 2026-05-05 20:20 | 37.63029 | 30.70257 | 40005 ft | 493 kts | 351° |
| 2026-05-05 20:21 | 37.69920 | 30.69401 | 39997 ft | 495 kts | 352° |
| 2026-05-05 20:21 | 37.76736 | 30.68560 | 39991 ft | 495 kts | 352° |
| 2026-05-05 20:22 | 37.83606 | 30.67710 | 40002 ft | 496 kts | 352° |
| 2026-05-05 20:22 | 37.90475 | 30.66821 | 40003 ft | 496 kts | 351° |
| 2026-05-05 20:23 | 37.97333 | 30.65838 | 39989 ft | 496 kts | 351° |
| 2026-05-05 20:23 | 38.04193 | 30.64908 | 40001 ft | 496 kts | 351° |
| 2026-05-05 20:24 | 38.11069 | 30.64004 | 39999 ft | 496 kts | 351° |
| 2026-05-05 20:24 | 38.17937 | 30.63104 | 39991 ft | 496 kts | 351° |
| 2026-05-05 20:25 | 38.24814 | 30.62211 | 40003 ft | 497 kts | 352° |
| 2026-05-05 20:25 | 38.31725 | 30.61806 | 39998 ft | 498 kts | 356° |
| 2026-05-05 20:26 | 38.38657 | 30.61672 | 39990 ft | 498 kts | 357° |
| 2026-05-05 20:26 | 38.45594 | 30.61599 | 40004 ft | 498 kts | 357° |
| 2026-05-05 20:27 | 38.52538 | 30.61528 | 39994 ft | 498 kts | 357° |
| 2026-05-05 20:27 | 38.59477 | 30.61452 | 39995 ft | 498 kts | 357° |
| 2026-05-05 20:28 | 38.66412 | 30.61317 | 39992 ft | 497 kts | 352° |
| 2026-05-05 20:28 | 38.69793 | 30.60531 | 39979 ft | 493 kts | 341° |
| 2026-05-05 20:28 | 38.73049 | 30.59160 | 40027 ft | 492 kts | 337° |
| 2026-05-05 20:29 | 38.79384 | 30.55910 | 40002 ft | 490 kts | 333° |
| 2026-05-05 20:29 | 38.85547 | 30.52211 | 39989 ft | 488 kts | 331° |
| 2026-05-05 20:30 | 38.91579 | 30.48329 | 40001 ft | 488 kts | 330° |
| 2026-05-05 20:30 | 38.97674 | 30.44338 | 39999 ft | 488 kts | 330° |
| 2026-05-05 20:31 | 39.03713 | 30.40372 | 39991 ft | 487 kts | 330° |
| 2026-05-05 20:31 | 39.09748 | 30.36405 | 40004 ft | 487 kts | 330° |
| 2026-05-05 20:32 | 39.15746 | 30.32456 | 39988 ft | 487 kts | 330° |
| 2026-05-05 20:32 | 39.18769 | 30.30462 | 39454 ft | 489 kts | 330° |
| 2026-05-05 20:32 | 39.21806 | 30.28457 | 38800 ft | 487 kts | 330° |
| 2026-05-05 20:32 | 39.24792 | 30.26487 | 38501 ft | 477 kts | 330° |
| 2026-05-05 20:33 | 39.27715 | 30.24557 | 38096 ft | 470 kts | 330° |
| 2026-05-05 20:33 | 39.30612 | 30.22641 | 37538 ft | 466 kts | 330° |
| 2026-05-05 20:33 | 39.33489 | 30.20735 | 36973 ft | 463 kts | 330° |
| 2026-05-05 20:33 | 39.36360 | 30.18831 | 36490 ft | 457 kts | 330° |
| 2026-05-05 20:34 | 39.39152 | 30.16978 | 36026 ft | 452 kts | 329° |
| 2026-05-05 20:34 | 39.41931 | 30.15132 | 35521 ft | 447 kts | 329° |
| 2026-05-05 20:34 | 39.44736 | 30.13312 | 34988 ft | 444 kts | 332° |
| 2026-05-05 20:34 | 39.47537 | 30.11657 | 34413 ft | 442 kts | 333° |
| 2026-05-05 20:35 | 39.50314 | 30.10082 | 33869 ft | 439 kts | 334° |
| 2026-05-05 20:35 | 39.53138 | 30.08505 | 33362 ft | 435 kts | 334° |
| 2026-05-05 20:35 | 39.55903 | 30.06969 | 32863 ft | 430 kts | 334° |
| 2026-05-05 20:35 | 39.58644 | 30.05445 | 32337 ft | 427 kts | 334° |
| 2026-05-05 20:36 | 39.61362 | 30.03932 | 31813 ft | 424 kts | 334° |
| 2026-05-05 20:36 | 39.64020 | 30.02449 | 31320 ft | 420 kts | 334° |
| 2026-05-05 20:36 | 39.66733 | 30.00934 | 30825 ft | 417 kts | 334° |
| 2026-05-05 20:36 | 39.69349 | 29.99471 | 30340 ft | 413 kts | 334° |
| 2026-05-05 20:37 | 39.71983 | 29.97997 | 29848 ft | 410 kts | 334° |
| 2026-05-05 20:37 | 39.74597 | 29.96532 | 29363 ft | 407 kts | 334° |
| 2026-05-05 20:37 | 39.77184 | 29.95083 | 28887 ft | 404 kts | 334° |
| 2026-05-05 20:37 | 39.79759 | 29.93637 | 28415 ft | 401 kts | 334° |
| 2026-05-05 20:38 | 39.82343 | 29.92184 | 27943 ft | 398 kts | 334° |
| 2026-05-05 20:38 | 39.84864 | 29.90764 | 27482 ft | 395 kts | 334° |
| 2026-05-05 20:38 | 39.87373 | 29.89436 | 27051 ft | 393 kts | 339° |
| 2026-05-05 20:38 | 39.90034 | 29.88664 | 26470 ft | 392 kts | 347° |
| 2026-05-05 20:39 | 39.92732 | 29.88153 | 25548 ft | 393 kts | 349° |
| 2026-05-05 20:39 | 39.95433 | 29.87733 | 25009 ft | 388 kts | 350° |
| 2026-05-05 20:39 | 39.98098 | 29.87432 | 24710 ft | 382 kts | 352° |
| 2026-05-05 20:39 | 40.00716 | 29.86912 | 24047 ft | 380 kts | 339° |
| 2026-05-05 20:40 | 40.02980 | 29.85247 | 23518 ft | 371 kts | 316° |
| 2026-05-05 20:40 | 40.04714 | 29.82845 | 23292 ft | 360 kts | 309° |
| 2026-05-05 20:40 | 40.06415 | 29.80474 | 22999 ft | 355 kts | 312° |
| 2026-05-05 20:40 | 40.08222 | 29.78269 | 22494 ft | 357 kts | 316° |
| 2026-05-05 20:41 | 40.10143 | 29.76189 | 21995 ft | 358 kts | 319° |
| 2026-05-05 20:41 | 40.12115 | 29.74215 | 21625 ft | 356 kts | 320° |
| 2026-05-05 20:41 | 40.14101 | 29.72313 | 21289 ft | 352 kts | 321° |
| 2026-05-05 20:41 | 40.16088 | 29.70454 | 20890 ft | 350 kts | 322° |
| 2026-05-05 20:42 | 40.18073 | 29.68620 | 20468 ft | 349 kts | 322° |
| 2026-05-05 20:42 | 40.20057 | 29.66797 | 19957 ft | 350 kts | 322° |
| 2026-05-05 20:42 | 40.22063 | 29.64957 | 19422 ft | 352 kts | 322° |
| 2026-05-05 20:42 | 40.24063 | 29.63126 | 19070 ft | 348 kts | 322° |
| 2026-05-05 20:43 | 40.26026 | 29.61331 | 18731 ft | 344 kts | 322° |
| 2026-05-05 20:43 | 40.27986 | 29.59536 | 18322 ft | 341 kts | 322° |
| 2026-05-05 20:43 | 40.29925 | 29.57758 | 17858 ft | 341 kts | 322° |
| 2026-05-05 20:43 | 40.31867 | 29.55977 | 17408 ft | 339 kts | 322° |
| 2026-05-05 20:44 | 40.33792 | 29.54211 | 17010 ft | 337 kts | 322° |
| 2026-05-05 20:44 | 40.35704 | 29.52455 | 16606 ft | 334 kts | 322° |
| 2026-05-05 20:44 | 40.37601 | 29.50712 | 16171 ft | 332 kts | 322° |
| 2026-05-05 20:44 | 40.39487 | 29.48977 | 15731 ft | 330 kts | 322° |
| 2026-05-05 20:45 | 40.43218 | 29.45542 | 14874 ft | 326 kts | 322° |
| 2026-05-05 20:45 | 40.45072 | 29.43834 | 14430 ft | 324 kts | 322° |
| 2026-05-05 20:45 | 40.46912 | 29.42137 | 13980 ft | 322 kts | 322° |
| 2026-05-05 20:46 | 40.48725 | 29.40464 | 13535 ft | 319 kts | 322° |
| 2026-05-05 20:46 | 40.50548 | 29.38781 | 13085 ft | 317 kts | 322° |
| 2026-05-05 20:46 | 40.52347 | 29.37118 | 12633 ft | 315 kts | 322° |
| 2026-05-05 20:46 | 40.54136 | 29.35465 | 12178 ft | 313 kts | 322° |
| 2026-05-05 20:47 | 40.55908 | 29.33825 | 11722 ft | 311 kts | 322° |
| 2026-05-05 20:47 | 40.57651 | 29.32211 | 11299 ft | 308 kts | 322° |
| 2026-05-05 20:47 | 40.59418 | 29.30574 | 11091 ft | 306 kts | 322° |
| 2026-05-05 20:47 | 40.61155 | 29.28964 | 11023 ft | 306 kts | 322° |
| 2026-05-05 20:48 | 40.62905 | 29.27339 | 10505 ft | 308 kts | 322° |
| 2026-05-05 20:48 | 40.64649 | 29.25720 | 10060 ft | 306 kts | 322° |
| 2026-05-05 20:48 | 40.66350 | 29.24141 | 9691 ft | 301 kts | 322° |
| 2026-05-05 20:48 | 40.68054 | 29.22558 | 9253 ft | 299 kts | 322° |
| 2026-05-05 20:49 | 40.69752 | 29.20978 | 8771 ft | 298 kts | 322° |
| 2026-05-05 20:49 | 40.71443 | 29.19404 | 8327 ft | 297 kts | 322° |
| 2026-05-05 20:49 | 40.73119 | 29.17843 | 7912 ft | 294 kts | 322° |
| 2026-05-05 20:49 | 40.74808 | 29.16270 | 7476 ft | 292 kts | 322° |
| 2026-05-05 20:50 | 40.76442 | 29.14746 | 7041 ft | 291 kts | 322° |
| 2026-05-05 20:50 | 40.77553 | 29.13709 | 6749 ft | 290 kts | 322° |
| 2026-05-05 20:50 | 40.79698 | 29.11702 | 6462 ft | 278 kts | 321° |
| 2026-05-05 20:50 | 40.81273 | 29.10221 | 6196 ft | 272 kts | 322° |
| 2026-05-05 20:51 | 40.82816 | 29.08767 | 5760 ft | 274 kts | 323° |
| 2026-05-05 20:51 | 40.84376 | 29.07298 | 5316 ft | 275 kts | 323° |
| 2026-05-05 20:51 | 40.85923 | 29.05846 | 5042 ft | 271 kts | 324° |
| 2026-05-05 20:51 | 40.87460 | 29.04412 | 4939 ft | 267 kts | 324° |
| 2026-05-05 20:52 | 40.88925 | 29.03045 | 4922 ft | 255 kts | 324° |
| 2026-05-05 20:52 | 40.89889 | 29.02144 | 4914 ft | 249 kts | 324° |
| 2026-05-05 20:52 | 40.91565 | 29.00139 | 4823 ft | 245 kts | 303° |
| 2026-05-05 20:52 | 40.92111 | 28.98036 | 4943 ft | 242 kts | 285° |
| 2026-05-05 20:53 | 40.92540 | 28.95868 | 4944 ft | 244 kts | 286° |
| 2026-05-05 20:53 | 40.92843 | 28.94411 | 4930 ft | 245 kts | 287° |
| 2026-05-05 20:53 | 40.93311 | 28.92237 | 4915 ft | 245 kts | 287° |
| 2026-05-05 20:53 | 40.93781 | 28.90116 | 4902 ft | 240 kts | 287° |
| 2026-05-05 20:54 | 40.94254 | 28.88013 | 4891 ft | 231 kts | 288° |
| 2026-05-05 20:54 | 40.94710 | 28.86002 | 4899 ft | 228 kts | 288° |
| 2026-05-05 20:54 | 40.95149 | 28.84080 | 4913 ft | 227 kts | 288° |
| 2026-05-05 20:54 | 40.95610 | 28.82067 | 4921 ft | 226 kts | 288° |
| 2026-05-05 20:55 | 40.96073 | 28.80047 | 4920 ft | 226 kts | 288° |
| 2026-05-05 20:55 | 40.96521 | 28.78093 | 4911 ft | 225 kts | 288° |
| 2026-05-05 20:55 | 40.96975 | 28.76113 | 4885 ft | 222 kts | 288° |
| 2026-05-05 20:55 | 40.97716 | 28.74366 | 4650 ft | 219 kts | 315° |
| 2026-05-05 20:56 | 40.99021 | 28.73555 | 4586 ft | 205 kts | 348° |
| 2026-05-05 20:56 | 41.00458 | 28.73400 | 4692 ft | 208 kts | 355° |
| 2026-05-05 20:56 | 41.01907 | 28.73279 | 4665 ft | 208 kts | 355° |
| 2026-05-05 20:56 | 41.03299 | 28.73186 | 4586 ft | 193 kts | 356° |
| 2026-05-05 20:57 | 41.04605 | 28.73136 | 4450 ft | 184 kts | 358° |
| 2026-05-05 20:57 | 41.05868 | 28.73128 | 4225 ft | 178 kts | 360° |
| 2026-05-05 20:57 | 41.07088 | 28.73150 | 4035 ft | 172 kts | 0° |
| 2026-05-05 20:57 | 41.08273 | 28.73166 | 3819 ft | 168 kts | 0° |
| 2026-05-05 20:58 | 41.09428 | 28.73154 | 3601 ft | 166 kts | 359° |
| 2026-05-05 20:58 | 41.10574 | 28.73105 | 3386 ft | 163 kts | 358° |
| 2026-05-05 20:58 | 41.11653 | 28.73050 | 3171 ft | 154 kts | 358° |
| 2026-05-05 20:58 | 41.12726 | 28.73011 | 2944 ft | 150 kts | 358° |
| 2026-05-05 20:59 | 41.13781 | 28.72980 | 2756 ft | 149 kts | 359° |
| 2026-05-05 20:59 | 41.14795 | 28.72974 | 2593 ft | 148 kts | 0° |
| 2026-05-05 20:59 | 41.15827 | 28.72982 | 2398 ft | 148 kts | 0° |
| 2026-05-05 20:59 | 41.16864 | 28.72978 | 2194 ft | 147 kts | 359° |
| 2026-05-05 21:00 | 41.17872 | 28.72948 | 1998 ft | 146 kts | 358° |
| 2026-05-05 21:00 | 41.18889 | 28.72904 | 1803 ft | 146 kts | 358° |
| 2026-05-05 21:00 | 41.19894 | 28.72867 | 1612 ft | 146 kts | 359° |
| 2026-05-05 21:00 | 41.20912 | 28.72847 | 1417 ft | 145 kts | 359° |
| 2026-05-05 21:01 | 41.21921 | 28.72838 | 1225 ft | 145 kts | 360° |
| 2026-05-05 21:01 | 41.22923 | 28.72828 | 1033 ft | 144 kts | 359° |
| 2026-05-05 21:01 | 41.23929 | 28.72813 | 847 ft | 144 kts | 359° |
| 2026-05-05 21:01 | 41.24927 | 28.72792 | 659 ft | 144 kts | 358° |
| 2026-05-05 21:02 | 41.25926 | 28.72766 | 465 ft | 143 kts | 359° |
| 2026-05-05 21:02 | 41.26904 | 28.72738 | 355 ft | 135 kts | 359° |
| 2026-05-05 21:02 | 41.27631 | 28.72729 | 338 ft | 52 kts | 1° |
| 2026-05-05 21:02 | 41.27819 | 28.72724 | 338 ft | 24 kts | 360° |
| 2026-05-05 21:03 | 41.27975 | 28.72760 | 338 ft | 14 kts | 22° |
| 2026-05-05 21:03 | 41.28073 | 28.72818 | 338 ft | 7 kts | 29° |
| 2026-05-05 21:03 | 41.28088 | 28.72829 | 338 ft | 6 kts | 29° |
| 2026-05-05 21:03 | 41.28114 | 28.72850 | 338 ft | 4 kts | 35° |
| 2026-05-05 21:04 | 41.28120 | 28.72855 | 338 ft | 0 kts | 35° |
| 2026-05-05 21:04 | 41.28126 | 28.72862 | 338 ft | 3 kts | 47° |
| 2026-05-05 21:04 | 41.28137 | 28.72914 | 338 ft | 6 kts | 119° |
| 2026-05-05 21:05 | 41.28094 | 28.72941 | 338 ft | 7 kts | 169° |
| 2026-05-05 21:05 | 41.28032 | 28.72946 | 338 ft | 10 kts | 179° |
| 2026-05-05 21:05 | 41.27956 | 28.72948 | 338 ft | 13 kts | 179° |
| 2026-05-05 21:05 | 41.27861 | 28.72951 | 338 ft | 16 kts | 179° |
| 2026-05-05 21:06 | 41.27771 | 28.72953 | 338 ft | 13 kts | 179° |
| 2026-05-05 21:06 | 41.27695 | 28.72954 | 338 ft | 7 kts | 180° |
| 2026-05-05 21:06 | 41.27650 | 28.72955 | 338 ft | 7 kts | 179° |
| 2026-05-05 21:06 | 41.27589 | 28.72957 | 338 ft | 10 kts | 179° |
| 2026-05-05 21:07 | 41.27529 | 28.72958 | 338 ft | 9 kts | 179° |
| 2026-05-05 21:07 | 41.27442 | 28.72961 | 338 ft | 16 kts | 179° |
| 2026-05-05 21:07 | 41.27318 | 28.72965 | 338 ft | 20 kts | 178° |
| 2026-05-05 21:07 | 41.27172 | 28.72969 | 338 ft | 17 kts | 180° |
| 2026-05-05 21:08 | 41.27047 | 28.72969 | 338 ft | 16 kts | 179° |
| 2026-05-05 21:08 | 41.26960 | 28.73002 | 338 ft | 13 kts | 124° |
| 2026-05-05 21:08 | 41.26952 | 28.73113 | 338 ft | 12 kts | 89° |
| 2026-05-05 21:08 | 41.26953 | 28.73246 | 338 ft | 17 kts | 89° |
| 2026-05-05 21:09 | 41.26955 | 28.73419 | 338 ft | 18 kts | 89° |
| 2026-05-05 21:09 | 41.26958 | 28.73571 | 338 ft | 17 kts | 89° |
| 2026-05-05 21:09 | 41.26961 | 28.73734 | 338 ft | 13 kts | 88° |
| 2026-05-05 21:09 | 41.26949 | 28.73833 | 338 ft | 11 kts | 134° |
| 2026-05-05 21:10 | 41.26878 | 28.73856 | 338 ft | 10 kts | 177° |
| 2026-05-05 21:10 | 41.26799 | 28.73858 | 338 ft | 12 kts | 179° |
| 2026-05-05 21:10 | 41.26721 | 28.73860 | 338 ft | 10 kts | 179° |
| 2026-05-05 21:10 | 41.26646 | 28.73862 | 338 ft | 13 kts | 179° |
| 2026-05-05 21:11 | 41.26573 | 28.73864 | 338 ft | 10 kts | 178° |
| 2026-05-05 21:11 | 41.26502 | 28.73881 | 338 ft | 9 kts | 162° |
| 2026-05-05 21:11 | 41.26445 | 28.73910 | 338 ft | 8 kts | 149° |
| 2026-05-05 21:11 | 41.26409 | 28.73936 | 338 ft | 4 kts | 179° |
| 2026-05-05 21:12 | 41.26381 | 28.73928 | 338 ft | 2 kts | 195° |
| 2026-05-05 21:12 | 41.26365 | 28.73922 | 338 ft | 1 kts | 196° |
| 2026-05-05 21:13 | 41.26361 | 28.73921 | 338 ft | 0 kts | 196° |